Time;durP1;ratioP1;P1;durP2;ratioP2;P2;SDS_P1;SDS_P2;PMS_P1;PMS_P2;Temp;Humidity;BMP_temperature;BMP_pressure;BME280_temperature;BME280_humidity;BME280_pressure;Samples;Min_cycle;Max_cycle;Signal;HPM_P1;HPM_P2
2022/12/01 00:00:24;;;;;;;11.40;9.48;;;;;;;;;;4960717;28;20181;-77
2022/12/01 00:02:57;;;;;;;26.63;17.42;;;;;;;;;;4944571;28;20038;-76
2022/12/01 00:05:26;;;;;;;27.23;15.82;;;;;;;;;;4961895;28;20520;-75
2022/12/01 00:08:18;;;;;;;19.97;14.77;;;;;;;;;;4955328;28;20049;-77
2022/12/01 00:10:44;;;;;;;33.22;17.25;;;;;;;;;;4927783;28;20045;-75
2022/12/01 00:13:35;;;;;;;16.25;14.15;;;;;;;;;;4953836;28;20143;-75
2022/12/01 00:16:14;;;;;;;30.00;17.75;;;;;;;;;;4959249;28;20034;-76
2022/12/01 00:18:50;;;;;;;35.95;17.58;;;;;;;;;;4992762;28;20034;-76
2022/12/01 00:21:16;;;;;;;20.10;15.27;;;;;;;;;;4940049;28;20045;-77
2022/12/01 00:23:43;;;;;;;32.38;17.67;;;;;;;;;;4914922;29;20063;-77
2022/12/01 00:26:09;;;;;;;24.67;14.27;;;;;;;;;;4921536;28;20039;-78
2022/12/01 00:28:35;;;;;;;23.98;17.75;;;;;;;;;;4907932;28;20038;-76
2022/12/01 00:31:26;;;;;;;26.77;16.73;;;;;;;;;;4946863;28;20061;-75
2022/12/01 00:33:52;;;;;;;7.50;6.93;;;;;;;;;;4923637;28;20058;-75
2022/12/01 00:36:19;;;;;;;27.60;17.25;;;;;;;;;;4921495;28;20090;-75
2022/12/01 00:38:45;;;;;;;29.27;16.13;;;;;;;;;;4908141;28;20086;-75
2022/12/01 00:41:11;;;;;;;33.55;15.88;;;;;;;;;;4923482;28;20063;-76
2022/12/01 00:43:38;;;;;;;48.63;20.65;;;;;;;;;;4908003;28;20066;-76
2022/12/01 00:46:04;;;;;;;45.45;20.88;;;;;;;;;;4955709;28;20050;-76
2022/12/01 00:48:30;;;;;;;39.45;18.10;;;;;;;;;;4908134;28;20038;-76
2022/12/01 00:50:56;;;;;;;35.38;19.35;;;;;;;;;;4923788;28;20034;-76
2022/12/01 00:53:23;;;;;;;41.60;21.25;;;;;;;;;;4907625;28;20415;-76
2022/12/01 00:55:49;;;;;;;52.80;22.80;;;;;;;;;;4942557;28;20030;-76
2022/12/01 00:58:15;;;;;;;35.08;18.90;;;;;;;;;;4990511;28;20049;-75
2022/12/01 01:00:41;;;;;;;44.90;20.77;;;;;;;;;;4959060;28;20033;-75
2022/12/01 01:03:08;;;;;;;34.13;18.50;;;;;;;;;;4945604;28;20041;-75
2022/12/01 01:05:41;;;;;;;44.08;20.40;;;;;;;;;;4962439;28;20061;-76
2022/12/01 01:08:10;;;;;;;33.67;15.82;;;;;;;;;;4962316;28;20095;-76
2022/12/01 01:11:02;;;;;;;23.85;13.60;;;;;;;;;;4967886;28;20084;-76
2022/12/01 01:13:28;;;;;;;33.63;14.20;;;;;;;;;;4961101;28;20061;-76
2022/12/01 01:16:04;;;;;;;23.35;13.60;;;;;;;;;;4943866;28;20046;-76
2022/12/01 01:18:39;;;;;;;49.35;15.68;;;;;;;;;;4948729;28;20049;-76
2022/12/01 01:21:17;;;;;;;25.35;15.93;;;;;;;;;;4950773;28;20077;-77
2022/12/01 01:23:43;;;;;;;43.00;19.88;;;;;;;;;;4941902;28;20097;-76
2022/12/01 01:26:12;;;;;;;60.33;28.00;;;;;;;;;;4958494;28;20387;-76
2022/12/01 01:28:40;;;;;;;28.92;18.38;;;;;;;;;;4938205;28;20556;-76
2022/12/01 01:31:07;;;;;;;48.20;21.88;;;;;;;;;;4922931;28;20133;-75
2022/12/01 01:33:33;;;;;;;53.53;26.13;;;;;;;;;;4922621;28;20093;-77
2022/12/01 01:35:59;;;;;;;20.02;12.98;;;;;;;;;;4922977;28;20030;-76
2022/12/01 01:38:25;;;;;;;19.38;16.73;;;;;;;;;;4935816;28;20584;-76
2022/12/01 01:40:57;;;;;;;44.25;23.00;;;;;;;;;;4939496;28;20042;-76
2022/12/01 01:43:55;;;;;;;7.72;6.55;;;;;;;;;;4922327;28;20500;-76
2022/12/01 01:46:23;;;;;;;24.23;15.65;;;;;;;;;;4927330;28;20047;-76
2022/12/01 01:48:53;;;;;;;36.00;19.25;;;;;;;;;;4922517;28;20039;-76
2022/12/01 01:51:32;;;;;;;31.80;15.90;;;;;;;;;;4940529;28;20483;-77
2022/12/01 01:53:57;;;;;;;;;;;;;;;;;;4923072;28;20030;-77
2022/12/01 01:56:26;;;;;;;29.15;10.60;;;;;;;;;;4938507;28;19940;-75
2022/12/01 01:58:52;;;;;;;61.72;24.27;;;;;;;;;;4922404;28;20134;-75
2022/12/01 02:01:18;;;;;;;27.27;18.23;;;;;;;;;;4922256;28;20082;-75
2022/12/01 02:03:44;;;;;;;52.33;25.23;;;;;;;;;;4924175;28;20043;-75
2022/12/01 02:06:16;;;;;;;23.90;15.25;;;;;;;;;;4922238;28;20054;-75
2022/12/01 02:08:44;;;;;;;61.88;25.77;;;;;;;;;;4954237;28;20056;-75
2022/12/01 02:11:29;;;;;;;55.65;24.73;;;;;;;;;;4937402;28;20051;-77
2022/12/01 02:14:03;;;;;;;20.60;12.10;;;;;;;;;;4922171;28;20530;-76
2022/12/01 02:16:43;;;;;;;25.33;16.98;;;;;;;;;;4921850;28;20534;-75
2022/12/01 02:19:13;;;;;;;6.13;5.72;;;;;;;;;;4922323;28;20042;-76
2022/12/01 02:21:59;;;;;;;11.68;4.75;;;;;;;;;;4954360;28;20030;-75
2022/12/01 02:24:57;;;;;;;15.55;9.15;;;;;;;;;;4895357;29;20063;-76
2022/12/01 02:27:41;;;;;;;27.45;16.73;;;;;;;;;;4864412;29;20551;-76
2022/12/01 02:30:08;;;;;;;40.88;17.67;;;;;;;;;;4945765;28;20042;-76
2022/12/01 02:33:00;;;;;;;43.08;16.55;;;;;;;;;;4940778;28;20038;-77
2022/12/01 02:35:42;;;;;;;34.55;17.55;;;;;;;;;;4895496;29;20485;-76
2022/12/01 02:38:14;;;;;;;41.33;16.05;;;;;;;;;;4925406;28;20041;-77
2022/12/01 02:40:50;;;;;;;14.27;8.40;;;;;;;;;;4941168;28;20044;-76
2022/12/01 02:43:16;;;;;;;15.75;11.57;;;;;;;;;;4941178;28;20125;-77
2022/12/01 02:46:01;;;;;;;26.67;15.27;;;;;;;;;;4940936;28;20042;-76
2022/12/01 02:48:28;;;;;;;30.40;12.60;;;;;;;;;;4941050;28;20038;-76
2022/12/01 02:50:55;;;;;;;26.40;15.90;;;;;;;;;;4925149;28;20042;-75
2022/12/01 02:53:21;;;;;;;26.00;18.05;;;;;;;;;;4925355;28;20046;-76
2022/12/01 02:55:51;;;;;;;32.47;16.48;;;;;;;;;;4924912;28;20026;-76
2022/12/01 02:58:17;;;;;;;31.73;19.35;;;;;;;;;;4940940;28;20034;-76
2022/12/01 03:00:47;;;;;;;28.05;16.10;;;;;;;;;;4935717;28;20038;-76
2022/12/01 03:03:36;;;;;;;23.85;13.63;;;;;;;;;;4938759;28;20038;-76
2022/12/01 03:06:07;;;;;;;17.05;12.90;;;;;;;;;;4972547;28;20042;-77
2022/12/01 03:09:17;;;;;;;24.45;14.93;;;;;;;;;;4964357;28;20134;-77
2022/12/01 03:11:47;;;;;;;22.70;12.48;;;;;;;;;;4944421;28;20710;-76
2022/12/01 03:14:17;;;;;;;28.33;14.18;;;;;;;;;;4933102;28;20138;-79
2022/12/01 03:16:46;;;;;;;24.83;13.70;;;;;;;;;;4917362;29;20499;-76
2022/12/01 03:19:26;;;;;;;30.23;15.10;;;;;;;;;;4917740;29;20051;-76
2022/12/01 03:21:55;;;;;;;27.45;16.13;;;;;;;;;;4940909;28;20123;-76
2022/12/01 03:24:22;;;;;;;22.08;14.55;;;;;;;;;;4924924;28;20059;-77
2022/12/01 03:26:50;;;;;;;43.75;19.95;;;;;;;;;;4924785;28;20076;-76
2022/12/01 03:29:18;;;;;;;44.70;14.15;;;;;;;;;;4937620;28;20042;-76
2022/12/01 03:32:20;;;;;;;28.50;15.05;;;;;;;;;;4948276;28;20601;-76
2022/12/01 03:34:54;;;;;;;26.90;13.90;;;;;;;;;;4924869;28;20031;-76
2022/12/01 03:37:39;;;;;;;32.22;15.73;;;;;;;;;;4924811;28;20842;-76
2022/12/01 03:40:06;;;;;;;20.95;14.43;;;;;;;;;;4924850;28;20537;-76
2022/12/01 03:42:46;;;;;;;24.42;15.52;;;;;;;;;;4924671;28;20148;-76
2022/12/01 03:45:32;;;;;;;18.48;13.73;;;;;;;;;;4920235;28;20035;-75
2022/12/01 03:48:00;;;;;;;13.93;11.85;;;;;;;;;;4917108;28;20464;-76
2022/12/01 03:50:40;;;;;;;18.20;11.43;;;;;;;;;;4923360;29;20043;-75
2022/12/01 03:53:12;;;;;;;12.13;8.85;;;;;;;;;;4905781;29;20034;-76
2022/12/01 03:55:39;;;;;;;18.60;10.98;;;;;;;;;;4921001;29;20066;-76
2022/12/01 03:58:07;;;;;;;12.38;8.48;;;;;;;;;;4921262;29;20129;-76
2022/12/01 04:00:40;;;;;;;11.50;8.35;;;;;;;;;;4910713;28;20503;-75
2022/12/01 04:03:07;;;;;;;12.90;9.20;;;;;;;;;;4924552;28;20560;-78
2022/12/01 04:05:33;;;;;;;10.77;9.77;;;;;;;;;;4908452;28;20133;-74
2022/12/01 04:08:04;;;;;;;27.67;15.05;;;;;;;;;;4948841;28;20035;-76
2022/12/01 04:10:34;;;;;;;10.50;7.70;;;;;;;;;;4929656;28;20031;-75
2022/12/01 04:13:03;;;;;;;34.08;17.88;;;;;;;;;;4948312;28;20046;-75
2022/12/01 04:15:33;;;;;;;61.67;25.58;;;;;;;;;;4967067;28;20041;-77
2022/12/01 04:17:59;;;;;;;39.45;20.48;;;;;;;;;;4954571;28;20062;-74
2022/12/01 04:20:27;;;;;;;23.35;14.35;;;;;;;;;;4954455;28;20034;-75
2022/12/01 04:22:53;;;;;;;19.50;12.73;;;;;;;;;;4939643;28;20046;-75
2022/12/01 04:25:19;;;;;;;31.00;17.20;;;;;;;;;;4924348;28;20031;-76
2022/12/01 04:27:50;;;;;;;13.13;8.27;;;;;;;;;;4955959;28;20031;-75
2022/12/01 04:30:23;;;;;;;29.42;15.23;;;;;;;;;;4939510;28;20534;-75
2022/12/01 04:32:55;;;;;;;18.67;10.27;;;;;;;;;;4953420;28;20038;-75
2022/12/01 04:35:21;;;;;;;12.95;9.23;;;;;;;;;;4974334;28;20050;-75
2022/12/01 04:37:47;;;;;;;32.33;17.50;;;;;;;;;;4941930;28;20034;-75
2022/12/01 04:40:14;;;;;;;10.73;9.38;;;;;;;;;;4942136;28;20042;-74
2022/12/01 04:42:40;;;;;;;6.63;6.13;;;;;;;;;;4942313;28;20058;-75
2022/12/01 04:45:21;;;;;;;25.83;13.85;;;;;;;;;;4962221;28;20132;-75
2022/12/01 04:47:53;;;;;;;58.22;24.45;;;;;;;;;;4942311;28;20392;-74
2022/12/01 04:50:19;;;;;;;51.80;24.33;;;;;;;;;;4974579;28;20100;-75
2022/12/01 04:52:45;;;;;;;16.95;12.77;;;;;;;;;;4926908;28;20034;-75
2022/12/01 04:55:14;;;;;;;56.40;24.80;;;;;;;;;;4942177;28;20653;-75
2022/12/01 04:57:45;;;;;;;28.35;16.80;;;;;;;;;;4958959;28;20077;-74
2022/12/01 05:00:12;;;;;;;;;;;;;;;;;;4975535;28;20042;-75
2022/12/01 05:02:38;;;;;;;20.95;14.63;;;;;;;;;;4958123;28;19910;-75
2022/12/01 05:05:05;;;;;;;18.65;11.73;;;;;;;;;;4958403;28;20096;-74
2022/12/01 05:07:31;;;;;;;41.50;20.75;;;;;;;;;;4974453;28;20097;-74
2022/12/01 05:09:58;;;;;;;54.05;21.73;;;;;;;;;;4958314;28;20034;-75
2022/12/01 05:12:24;;;;;;;27.13;17.25;;;;;;;;;;4942650;28;20051;-75
2022/12/01 05:14:50;;;;;;;29.75;16.05;;;;;;;;;;4926551;28;20034;-74
2022/12/01 05:17:16;;;;;;;11.98;10.45;;;;;;;;;;4926482;28;20037;-75
2022/12/01 05:22:29;;;;;;;45.72;18.67;;;;;;;;;;4963232;28;20148;-75
2022/12/01 05:24:55;;;;;;;16.13;9.93;;;;;;;;;;4977042;28;20050;-75
2022/12/01 05:27:21;;;;;;;12.05;8.85;;;;;;;;;;5011048;28;20037;-75
2022/12/01 05:29:47;;;;;;;10.60;6.75;;;;;;;;;;4977077;28;20045;-74
2022/12/01 05:32:13;;;;;;;8.63;7.20;;;;;;;;;;4977237;28;20029;-75
2022/12/01 05:34:39;;;;;;;23.27;14.85;;;;;;;;;;4993097;28;20042;-74
2022/12/01 05:37:05;;;;;;;39.25;20.05;;;;;;;;;;5010748;28;20040;-75
2022/12/01 05:39:31;;;;;;;12.43;10.05;;;;;;;;;;4961040;28;20132;-75
2022/12/01 05:41:57;;;;;;;48.63;23.98;;;;;;;;;;4993595;28;20034;-75
2022/12/01 05:44:23;;;;;;;44.38;15.50;;;;;;;;;;4960107;28;20050;-75
2022/12/01 05:47:05;;;;;;;24.75;12.68;;;;;;;;;;4967452;28;20048;-75
2022/12/01 05:49:31;;;;;;;26.17;13.95;;;;;;;;;;4960607;28;20125;-75
2022/12/01 05:52:04;;;;;;;20.08;11.13;;;;;;;;;;4978467;28;20050;-74
2022/12/01 05:54:30;;;;;;;38.70;17.80;;;;;;;;;;4959113;28;20104;-74
2022/12/01 05:57:00;;;;;;;24.05;12.90;;;;;;;;;;4960251;28;20033;-76
2022/12/01 05:59:51;;;;;;;26.65;13.27;;;;;;;;;;4959494;28;20068;-74
2022/12/01 06:02:17;;;;;;;12.68;5.57;;;;;;;;;;4976349;28;20061;-74
2022/12/01 06:04:43;;;;;;;22.80;11.73;;;;;;;;;;4921580;28;20038;-75
2022/12/01 06:07:09;;;;;;;34.85;16.42;;;;;;;;;;4933373;28;20035;-74
2022/12/01 06:09:36;;;;;;;29.13;16.60;;;;;;;;;;4930558;28;20045;-75
2022/12/01 06:12:02;;;;;;;3.78;3.47;;;;;;;;;;4948673;28;20050;-75
2022/12/01 06:14:29;;;;;;;13.63;8.23;;;;;;;;;;4926328;28;20405;-75
2022/12/01 06:16:55;;;;;;;28.92;12.75;;;;;;;;;;4940845;28;20030;-74
2022/12/01 06:19:23;;;;;;;30.02;18.13;;;;;;;;;;4952098;28;20503;-73
2022/12/01 06:21:49;;;;;;;20.67;15.20;;;;;;;;;;4921234;28;20080;-74
2022/12/01 06:24:15;;;;;;;30.02;18.15;;;;;;;;;;4905730;28;20090;-74
2022/12/01 06:35:18;;;;;;;17.98;13.95;;;;;;;;;;4934040;28;20023;-74
2022/12/01 06:37:57;;;;;;;4.53;4.22;;;;;;;;;;4950713;28;20046;-76
2022/12/01 06:40:27;;;;;;;7.05;6.57;;;;;;;;;;4960410;28;20030;-75
2022/12/01 06:42:54;;;;;;;9.43;6.82;;;;;;;;;;4958197;28;20188;-74
2022/12/01 06:45:19;;;;;;;5.13;4.82;;;;;;;;;;4943207;28;20559;-75
2022/12/01 06:47:47;;;;;;;31.17;12.13;;;;;;;;;;4942949;28;20129;-74
2022/12/01 06:50:16;;;;;;;32.22;17.40;;;;;;;;;;4976497;28;20044;-73
2022/12/01 06:53:08;;;;;;;18.48;10.13;;;;;;;;;;4988783;28;20041;-75
2022/12/01 06:55:39;;;;;;;12.13;9.27;;;;;;;;;;4960176;28;20054;-73
2022/12/01 06:58:05;;;;;;;20.20;13.00;;;;;;;;;;4958733;28;20041;-73
2022/12/01 07:00:31;;;;;;;8.70;6.75;;;;;;;;;;4970037;28;20061;-73
2022/12/01 07:02:59;;;;;;;5.80;5.40;;;;;;;;;;4975096;28;20034;-73
2022/12/01 07:05:25;;;;;;;17.02;9.50;;;;;;;;;;4941842;28;20054;-73
2022/12/01 07:07:51;;;;;;;6.13;5.65;;;;;;;;;;4958225;28;20033;-73
2022/12/01 07:10:42;;;;;;;23.50;13.35;;;;;;;;;;4982026;28;20053;-75
2022/12/01 07:13:10;;;;;;;18.95;13.30;;;;;;;;;;4943477;28;20050;-74
2022/12/01 07:15:49;;;;;;;32.92;16.23;;;;;;;;;;4926201;28;20061;-74
2022/12/01 07:18:23;;;;;;;44.97;19.27;;;;;;;;;;4948482;28;20041;-73
2022/12/01 07:20:49;;;;;;;49.30;18.38;;;;;;;;;;4939185;28;20038;-74
2022/12/01 07:23:16;;;;;;;16.10;11.35;;;;;;;;;;4939452;28;20519;-75
2022/12/01 07:25:42;;;;;;;34.97;16.08;;;;;;;;;;4937820;28;20054;-74
2022/12/01 07:28:07;;;;;;;44.40;20.35;;;;;;;;;;4921921;28;20027;-73
2022/12/01 07:30:34;;;;;;;32.45;18.52;;;;;;;;;;4919757;28;20034;-74
2022/12/01 07:33:00;;;;;;;21.25;13.00;;;;;;;;;;4920242;28;20035;-74
2022/12/01 07:35:30;;;;;;;36.08;19.38;;;;;;;;;;4936540;28;20194;-74
2022/12/01 07:37:55;;;;;;;5.72;5.07;;;;;;;;;;4919931;28;20034;-73
2022/12/01 07:40:21;;;;;;;16.40;11.73;;;;;;;;;;4920254;28;20035;-74
2022/12/01 07:42:47;;;;;;;31.85;17.02;;;;;;;;;;4935768;28;20034;-75
2022/12/01 07:45:13;;;;;;;36.58;19.00;;;;;;;;;;4909180;28;20086;-73
2022/12/01 07:47:46;;;;;;;17.88;12.82;;;;;;;;;;4918789;28;20039;-74
2022/12/01 07:50:12;;;;;;;38.28;18.80;;;;;;;;;;4935970;28;20039;-74
2022/12/01 07:52:38;;;;;;;47.15;22.23;;;;;;;;;;4920432;28;20034;-74
2022/12/01 07:55:04;;;;;;;24.55;14.38;;;;;;;;;;4935919;28;20572;-74
2022/12/01 07:57:30;;;;;;;39.38;18.77;;;;;;;;;;4920740;28;20074;-74
2022/12/01 07:59:56;;;;;;;31.65;16.15;;;;;;;;;;4936637;28;20038;-74
2022/12/01 08:02:23;;;;;;;31.05;18.13;;;;;;;;;;4939131;28;20521;-75
2022/12/01 08:04:49;;;;;;;34.40;19.55;;;;;;;;;;4923338;28;20048;-74
2022/12/01 08:07:15;;;;;;;41.60;19.50;;;;;;;;;;4935901;28;20514;-75
2022/12/01 08:09:44;;;;;;;54.75;21.73;;;;;;;;;;4920361;28;20046;-73
2022/12/01 08:12:13;;;;;;;55.45;24.10;;;;;;;;;;4928388;28;20073;-75
2022/12/01 08:14:39;;;;;;;46.15;24.20;;;;;;;;;;4941709;28;20444;-74
2022/12/01 08:17:05;;;;;;;51.75;23.75;;;;;;;;;;4925033;28;20034;-75
2022/12/01 08:19:46;;;;;;;22.00;13.20;;;;;;;;;;4942910;28;20031;-75
2022/12/01 08:22:12;;;;;;;62.22;24.08;;;;;;;;;;4943451;28;20038;-75
2022/12/01 08:24:39;;;;;;;58.47;26.73;;;;;;;;;;4943738;28;20046;-74
2022/12/01 08:27:05;;;;;;;58.58;24.88;;;;;;;;;;4938009;28;20404;-75
2022/12/01 08:29:31;;;;;;;52.05;24.40;;;;;;;;;;4943390;28;20554;-74
2022/12/01 08:31:57;;;;;;;45.53;22.33;;;;;;;;;;4927572;28;20036;-74
2022/12/01 08:34:23;;;;;;;49.88;23.98;;;;;;;;;;4944076;28;20053;-74
2022/12/01 08:36:49;;;;;;;60.40;26.23;;;;;;;;;;4946650;28;20214;-74
2022/12/01 08:39:15;;;;;;;68.90;28.08;;;;;;;;;;4950858;28;20633;-74
2022/12/01 08:41:44;;;;;;;73.10;27.40;;;;;;;;;;4944687;28;20411;-75
2022/12/01 08:44:11;;;;;;;65.57;28.15;;;;;;;;;;4945030;28;20034;-75
2022/12/01 08:46:37;;;;;;;54.22;25.30;;;;;;;;;;4945229;28;20038;-75
2022/12/01 08:49:04;;;;;;;36.65;16.92;;;;;;;;;;4935450;28;20035;-75
2022/12/01 08:51:30;;;;;;;57.15;25.08;;;;;;;;;;4967071;28;20030;-73
2022/12/01 08:54:20;;;;;;;52.13;23.23;;;;;;;;;;4956747;28;20042;-73
2022/12/01 08:56:50;;;;;;;53.38;24.33;;;;;;;;;;4951291;28;20031;-73
2022/12/01 08:59:25;;;;;;;16.77;10.73;;;;;;;;;;4937601;28;20133;-74
2022/12/01 09:05:11;;;;;;;52.67;23.73;;;;;;;;;;4960081;28;20050;-74
2022/12/01 09:08:29;;;;;;;18.02;9.93;;;;;;;;;;4911019;28;20050;-75
2022/12/01 09:10:30;;;;;;;52.92;24.08;;;;;;;;;;4926878;28;20043;-73
2022/12/01 09:12:56;;;;;;;6.78;6.22;;;;;;;;;;4917571;29;20512;-74
2022/12/01 09:15:27;;;;;;;;;;;;;;;;;;4944664;28;20582;-73
2022/12/01 09:17:53;;;;;;;30.13;15.80;;;;;;;;;;4940803;28;19977;-74
2022/12/01 09:20:22;;;;;;;25.98;13.45;;;;;;;;;;4920927;29;20027;-74
2022/12/01 09:22:48;;;;;;;34.08;16.63;;;;;;;;;;4921262;29;20046;-75
2022/12/01 09:25:14;;;;;;;21.38;14.80;;;;;;;;;;4914034;29;20111;-73
2022/12/01 09:27:41;;;;;;;46.40;23.48;;;;;;;;;;4916724;28;20039;-74
2022/12/01 09:30:08;;;;;;;45.95;22.42;;;;;;;;;;4935504;28;20047;-75
2022/12/01 09:32:41;;;;;;;58.25;24.55;;;;;;;;;;4915485;28;20035;-75
2022/12/01 09:35:07;;;;;;;22.55;12.73;;;;;;;;;;4921019;28;20053;-74
2022/12/01 09:37:38;;;;;;;39.70;22.58;;;;;;;;;;4941447;28;20110;-76
2022/12/01 09:40:08;;;;;;;40.45;20.55;;;;;;;;;;4920819;28;20515;-72
2022/12/01 09:42:34;;;;;;;41.70;21.73;;;;;;;;;;4920761;28;20039;-75
2022/12/01 09:45:03;;;;;;;49.33;21.23;;;;;;;;;;4939049;28;20038;-72
2022/12/01 09:47:30;;;;;;;59.05;23.35;;;;;;;;;;4921805;28;20561;-73
2022/12/01 09:49:59;;;;;;;43.65;20.95;;;;;;;;;;4921600;28;20043;-72
2022/12/01 09:52:25;;;;;;;60.47;24.73;;;;;;;;;;4921781;28;20085;-73
2022/12/01 09:54:53;;;;;;;33.42;19.58;;;;;;;;;;4905535;28;20069;-72
2022/12/01 09:57:28;;;;;;;47.58;23.25;;;;;;;;;;4921444;28;20042;-73
2022/12/01 09:59:54;;;;;;;50.13;22.05;;;;;;;;;;4921381;28;20138;-73
2022/12/01 10:02:39;;;;;;;61.17;24.52;;;;;;;;;;4906983;28;20126;-73
2022/12/01 10:05:09;;;;;;;58.00;22.63;;;;;;;;;;4923152;28;20153;-74
2022/12/01 10:07:36;;;;;;;53.63;25.45;;;;;;;;;;4953173;28;20137;-72
2022/12/01 10:10:04;;;;;;;28.77;14.35;;;;;;;;;;4905351;28;20038;-72
2022/12/01 10:12:31;;;;;;;9.90;8.88;;;;;;;;;;4901602;29;20054;-72
2022/12/01 10:15:21;;;;;;;19.13;10.25;;;;;;;;;;4962494;28;20042;-73
2022/12/01 10:17:55;;;;;;;65.43;26.17;;;;;;;;;;4953336;28;20189;-74
2022/12/01 10:20:30;;;;;;;27.27;14.55;;;;;;;;;;4946267;29;20031;-74
2022/12/01 10:23:09;;;;;;;43.53;20.20;;;;;;;;;;4893507;28;20125;-74
2022/12/01 10:25:40;;;;;;;38.08;19.80;;;;;;;;;;4903038;29;20436;-74
2022/12/01 10:28:14;;;;;;;46.13;23.02;;;;;;;;;;4905664;29;20126;-74
2022/12/01 10:30:46;;;;;;;48.60;23.75;;;;;;;;;;4904045;29;20401;-74
2022/12/01 10:33:24;;;;;;;49.42;25.30;;;;;;;;;;4903824;29;20039;-74
2022/12/01 10:35:51;;;;;;;48.20;22.45;;;;;;;;;;4918922;29;20072;-73
2022/12/01 10:38:27;;;;;;;77.55;25.40;;;;;;;;;;4922679;28;20039;-76
2022/12/01 10:40:54;;;;;;;44.35;17.75;;;;;;;;;;4926469;28;20090;-73
2022/12/01 10:43:32;;;;;;;44.72;20.83;;;;;;;;;;4927263;28;20050;-74
2022/12/01 10:46:10;;;;;;;9.55;6.25;;;;;;;;;;4926937;28;20074;-73
2022/12/01 10:49:22;;;;;;;38.40;15.93;;;;;;;;;;4958456;28;20043;-73
2022/12/01 10:51:50;;;;;;;;;;;;;;;;;;4930496;28;20039;-75
2022/12/01 10:54:16;;;;;;;55.03;25.10;;;;;;;;;;4934575;28;19914;-73
2022/12/01 10:56:46;;;;;;;25.70;14.18;;;;;;;;;;4933330;29;20133;-76
2022/12/01 10:59:21;;;;;;;63.08;26.05;;;;;;;;;;4932529;28;20049;-75
2022/12/01 11:01:57;;;;;;;44.65;16.13;;;;;;;;;;4924055;28;20515;-75
2022/12/01 11:04:44;;;;;;;67.20;25.08;;;;;;;;;;4909153;29;20070;-75
2022/12/01 11:07:20;;;;;;;61.70;24.38;;;;;;;;;;4920696;28;20046;-74
2022/12/01 11:10:01;;;;;;;47.15;20.40;;;;;;;;;;4935633;28;20042;-73
2022/12/01 11:12:30;;;;;;;59.28;25.85;;;;;;;;;;4932607;28;20050;-73
2022/12/01 11:15:06;;;;;;;59.88;25.60;;;;;;;;;;4973330;28;20042;-73
2022/12/01 11:17:42;;;;;;;48.00;23.88;;;;;;;;;;4938350;28;20034;-75
2022/12/01 11:20:27;;;;;;;39.30;19.25;;;;;;;;;;4965764;28;20032;-74
2022/12/01 11:23:09;;;;;;;49.92;21.85;;;;;;;;;;4936082;29;20042;-73
2022/12/01 11:25:36;;;;;;;62.72;23.30;;;;;;;;;;4949171;28;20055;-74
2022/12/01 11:28:06;;;;;;;39.83;19.50;;;;;;;;;;4952836;28;20035;-74
2022/12/01 11:30:32;;;;;;;50.80;19.23;;;;;;;;;;4939115;28;20046;-74
2022/12/01 11:32:59;;;;;;;60.25;24.42;;;;;;;;;;4923417;28;20043;-74
2022/12/01 11:35:25;;;;;;;49.72;25.10;;;;;;;;;;4935886;28;20038;-74
2022/12/01 11:37:55;;;;;;;68.35;25.95;;;;;;;;;;4936422;28;20530;-74
2022/12/01 11:40:28;;;;;;;34.03;15.50;;;;;;;;;;4920918;28;20055;-75
2022/12/01 11:43:14;;;;;;;52.13;25.23;;;;;;;;;;4927213;28;20222;-75
2022/12/01 11:45:44;;;;;;;55.30;26.65;;;;;;;;;;4970695;28;20142;-74
2022/12/01 11:48:10;;;;;;;73.28;29.90;;;;;;;;;;4923761;28;20365;-75
2022/12/01 11:50:44;;;;;;;57.47;25.77;;;;;;;;;;4923682;28;20507;-74
2022/12/01 11:56:28;;;;;;;19.40;13.73;;;;;;;;;;4941003;28;20046;-73
2022/12/01 11:59:04;;;;;;;34.55;19.52;;;;;;;;;;4932399;28;20042;-73
2022/12/01 12:01:49;;;;;;;63.55;27.80;;;;;;;;;;4907393;28;20039;-74
2022/12/01 12:04:34;;;;;;;62.28;27.45;;;;;;;;;;4939206;28;20054;-74
2022/12/01 12:07:19;;;;;;;88.57;43.95;;;;;;;;;;4939923;28;20038;-74
2022/12/01 12:09:48;;;;;;;91.85;42.97;;;;;;;;;;4939843;28;20078;-74
2022/12/01 12:12:17;;;;;;;84.53;39.08;;;;;;;;;;4923221;28;20050;-75
2022/12/01 12:14:57;;;;;;;62.97;29.83;;;;;;;;;;4964955;28;20052;-75
2022/12/01 12:17:32;;;;;;;43.85;22.35;;;;;;;;;;4955847;28;20293;-75
2022/12/01 12:20:03;;;;;;;54.72;27.10;;;;;;;;;;4939065;28;20046;-75
2022/12/01 12:22:39;;;;;;;63.97;28.37;;;;;;;;;;4973500;28;20034;-75
2022/12/01 12:25:22;;;;;;;68.00;29.38;;;;;;;;;;4934238;28;20049;-76
2022/12/01 12:28:05;;;;;;;61.00;25.25;;;;;;;;;;4972319;28;20125;-76
2022/12/01 12:30:34;;;;;;;76.07;36.15;;;;;;;;;;4946214;28;20042;-76
2022/12/01 12:33:03;;;;;;;62.72;24.70;;;;;;;;;;4940717;28;20029;-75
2022/12/01 12:35:36;;;;;;;58.95;29.83;;;;;;;;;;4935866;28;20073;-76
2022/12/01 12:38:16;;;;;;;42.03;21.33;;;;;;;;;;4951236;28;20038;-76
2022/12/01 12:40:53;;;;;;;49.28;19.63;;;;;;;;;;4951787;28;20031;-76
2022/12/01 12:43:40;;;;;;;44.35;18.35;;;;;;;;;;4930471;28;20537;-75
2022/12/01 12:46:11;;;;;;;37.22;20.55;;;;;;;;;;4963442;28;20049;-76
2022/12/01 12:48:51;;;;;;;53.03;24.67;;;;;;;;;;4918369;28;20065;-75
2022/12/01 12:51:30;;;;;;;47.85;21.83;;;;;;;;;;4940576;28;20034;-75
2022/12/01 12:54:11;;;;;;;50.40;23.30;;;;;;;;;;4938608;28;20137;-76
2022/12/01 12:56:42;;;;;;;50.58;24.48;;;;;;;;;;4957248;28;20077;-77
2022/12/01 12:59:19;;;;;;;49.03;24.83;;;;;;;;;;4945190;28;20046;-77
2022/12/01 13:01:57;;;;;;;39.63;20.13;;;;;;;;;;4942642;28;20129;-77
2022/12/01 13:04:26;;;;;;;48.05;21.35;;;;;;;;;;4943101;28;20584;-77
2022/12/01 13:07:18;;;;;;;76.00;32.30;;;;;;;;;;4942605;28;20395;-77
2022/12/01 13:09:45;;;;;;;35.10;18.73;;;;;;;;;;4925621;28;20030;-77
2022/12/01 13:12:17;;;;;;;90.82;37.17;;;;;;;;;;4939280;28;20293;-78
2022/12/01 13:15:15;;;;;;;42.13;22.33;;;;;;;;;;4979868;28;20044;-76
2022/12/01 13:17:53;;;;;;;45.35;24.13;;;;;;;;;;4944734;28;20041;-77
2022/12/01 13:20:21;;;;;;;82.50;37.03;;;;;;;;;;4957736;28;20065;-76
2022/12/01 13:22:48;;;;;;;64.85;28.42;;;;;;;;;;4944922;28;20049;-77
2022/12/01 13:25:27;;;;;;;88.32;37.65;;;;;;;;;;4948661;28;20038;-77
2022/12/01 13:28:36;;;;;;;90.47;34.92;;;;;;;;;;4959506;28;20090;-76
2022/12/01 13:31:03;;;;;;;75.60;30.67;;;;;;;;;;4941978;28;20038;-76
2022/12/01 13:33:29;;;;;;;84.32;37.50;;;;;;;;;;4926791;28;20096;-74
2022/12/01 13:36:10;;;;;;;72.80;31.20;;;;;;;;;;4959180;28;20031;-76
2022/12/01 13:38:36;;;;;;;73.75;35.38;;;;;;;;;;4941651;28;20073;-76
2022/12/01 13:41:11;;;;;;;89.57;40.15;;;;;;;;;;4943371;28;20578;-76
2022/12/01 13:43:51;;;;;;;85.05;38.38;;;;;;;;;;4942387;28;20030;-77
2022/12/01 13:46:21;;;;;;;89.07;39.78;;;;;;;;;;4942079;28;20105;-77
2022/12/01 13:48:47;;;;;;;81.07;34.20;;;;;;;;;;4919654;28;20153;-76
2022/12/01 13:51:13;;;;;;;83.38;36.60;;;;;;;;;;4957536;28;20038;-76
2022/12/01 13:53:59;;;;;;;58.15;25.02;;;;;;;;;;4942567;28;20037;-76
2022/12/01 13:56:46;;;;;;;57.85;27.60;;;;;;;;;;4919199;28;20108;-77
2022/12/01 13:59:35;;;;;;;53.28;25.73;;;;;;;;;;4937534;28;20040;-77
2022/12/01 14:02:20;;;;;;;64.22;30.83;;;;;;;;;;4923735;28;20130;-77
2022/12/01 14:05:09;;;;;;;78.15;33.20;;;;;;;;;;4943915;28;20054;-78
2022/12/01 14:07:36;;;;;;;107.20;43.97;;;;;;;;;;4927181;28;20129;-76
2022/12/01 14:10:07;;;;;;;132.63;59.65;;;;;;;;;;4942474;28;20415;-77
2022/12/01 14:12:37;;;;;;;101.40;43.95;;;;;;;;;;4923752;28;20059;-76
2022/12/01 14:15:10;;;;;;;57.88;25.50;;;;;;;;;;4931936;29;20143;-77
2022/12/01 14:17:36;;;;;;;53.45;22.80;;;;;;;;;;4922504;28;20050;-76
2022/12/01 14:20:13;;;;;;;71.80;31.73;;;;;;;;;;4956326;28;20039;-77
2022/12/01 14:22:40;;;;;;;64.30;29.02;;;;;;;;;;4923252;28;20043;-77
2022/12/01 14:25:20;;;;;;;30.60;16.75;;;;;;;;;;4921612;28;20519;-77
2022/12/01 14:27:55;;;;;;;75.50;31.30;;;;;;;;;;4955453;28;20034;-77
2022/12/01 14:30:45;;;;;;;51.65;23.50;;;;;;;;;;4921678;28;20515;-76
2022/12/01 14:33:34;;;;;;;51.75;22.60;;;;;;;;;;4939860;28;20043;-76
2022/12/01 14:36:00;;;;;;;39.53;19.85;;;;;;;;;;4938427;28;20150;-76
2022/12/01 14:38:31;;;;;;;64.45;24.15;;;;;;;;;;4939750;28;20533;-77
2022/12/01 14:40:57;;;;;;;49.53;22.35;;;;;;;;;;4938763;28;20483;-76
2022/12/01 14:46:18;;;;;;;8.85;8.15;;;;;;;;;;4938157;28;20703;-76
2022/12/01 14:48:47;;;;;;;53.47;25.60;;;;;;;;;;4922814;28;20043;-77
2022/12/01 14:51:27;;;;;;;76.78;36.22;;;;;;;;;;4938242;28;20042;-77
2022/12/01 14:53:53;;;;;;;71.50;33.30;;;;;;;;;;4922900;28;20031;-76
2022/12/01 14:56:19;;;;;;;52.50;20.58;;;;;;;;;;4938329;28;20109;-76
2022/12/01 14:58:52;;;;;;;70.03;23.77;;;;;;;;;;4938374;28;20495;-76
2022/12/01 15:01:18;;;;;;;48.33;23.88;;;;;;;;;;4938357;28;20031;-76
2022/12/01 15:03:46;;;;;;;52.65;24.92;;;;;;;;;;4922666;28;20533;-76
2022/12/01 15:06:23;;;;;;;59.05;26.42;;;;;;;;;;4936615;28;20048;-77
2022/12/01 15:09:06;;;;;;;33.40;16.75;;;;;;;;;;4912868;29;20039;-76